Tiempo atmosférico en la estación meteorológica de Llucmajor, Puig d?Escorca, Illes Balears (113 m.)



Fecha
DESCASC
Temp. máxima en grados centígrados (hora)
DESCASC
Temp. mínima en grados centígrados (hora)
DESCASC
Temp. media en grados centígrados
DESCASC
Racha de viento máxima en m/sg (hora)
DESCASC
Velocidad máxima media en intervalos de 10 minutos(hora)
DESCASC
Precipitaciones diarias en mm
DESCASC
Precipitaciones de 00:00 a 06:00 en mm
DESCASC
Precipitaciones de 06:00 a 12:00 en mm
DESCASC
Precipitaciones de 12:00 a 18:00 en mm
DESCASC
Precipitaciones de 18:00 a 24:00 en mm
DESCASC

Gráficas

Temp. máximas Temp. mínimas Temp. medias Precipitaciones Rachas de viento máximas Velocidades máximas media en intervalos de 10 minutos

Datos horarios

Fecha y hora oficial Temperatura (ºC) Velocidad del viento (km/h) Dirección del viento Racha (km/h) Dirección de racha Precipitación (mm) Presión (hPa) Tendencia (hPa) Humedad (%)
2020-04-07 23:00:00 13 6 Nordeste 10 Este 0 -- -- 72
2020-04-07 22:00:00 13.9 7 Este 11 Este 0 -- -- 68
2020-04-07 21:00:00 14.4 7 Sudeste 16 Sudeste 0 -- -- 65
2020-04-07 20:00:00 14.7 8 Sudeste 17 Sur 0 -- -- 65
2020-04-07 19:00:00 17 11 Sudeste 22 Sur 0 -- -- 58
2020-04-07 18:00:00 18.1 15 Sudeste 28 Sudeste 0 -- -- 54
2020-04-07 17:00:00 18.4 17 Sudeste 28 Sudeste 0 -- -- 53
2020-04-07 16:00:00 18.5 17 Sudeste 31 Sur 0 -- -- 58
2020-04-07 15:00:00 18.7 19 Sudeste 31 Sudeste 0 -- -- 54
2020-04-07 14:00:00 18.5 20 Sudeste 33 Sudeste 0 -- -- 58
2020-04-07 13:00:00 18.6 18 Sudeste 27 Sudeste 0 -- -- 54
2020-04-07 12:00:00 18.5 11 Sudeste 23 Este 0 -- -- 58
2020-04-07 11:00:00 17.2 14 Este 23 Este 0 -- -- 62
2020-04-07 10:00:00 15.2 13 Este 27 Nordeste 0 -- -- 75
2020-04-07 09:00:00 13.1 11 Nordeste 17 Nordeste 0 -- -- 78
2020-04-07 08:00:00 10.5 11 Nordeste 16 Nordeste 0 -- -- 81
2020-04-07 07:00:00 10.2 9 Nordeste 16 Nordeste 0 -- -- 81
2020-04-07 06:00:00 10.5 12 Nordeste 16 Nordeste 0 -- -- 80
2020-04-07 05:00:00 10.6 10 Nordeste 17 Nordeste 0 -- -- 79
2020-04-07 04:00:00 10.2 9 Nordeste 14 Nordeste 0 -- -- 79
2020-04-07 03:00:00 10.8 9 Nordeste 13 Nordeste 0 -- -- 78
2020-04-07 02:00:00 10.5 7 Nordeste 12 Este 0 -- -- 79
2020-04-07 01:00:00 10.6 8 Nordeste 13 Nordeste 0 -- -- 77
2020-04-07 00:00:00 11.2 8 Nordeste 13 Nordeste 0 -- -- 74
2020-04-06 23:00:00 11.7 6 Nordeste 8 Este 0 -- -- 73
2020-04-06 22:00:00 12.7 4 Este 8 Sudeste 0 -- -- 71
2020-04-06 21:00:00 13.2 6 Sudeste 15 Sudeste 0 -- -- 69
2020-04-06 20:00:00 14.8 10 Sudeste 17 Sudeste 0 -- -- 61
2020-04-06 19:00:00 16.3 10 Sudeste 21 Sur 0 -- -- 56
2020-04-06 18:00:00 18.2 14 Sur 22 Sur 0 -- -- 49
2020-04-06 17:00:00 18.9 13 Sur 22 Sudeste 0 -- -- 46
2020-04-06 16:00:00 18.6 13 Sudeste 21 Sudeste 0 -- -- 47
2020-04-06 15:00:00 18.3 12 Sudeste 24 Sudeste 0 -- -- 51
2020-04-06 14:00:00 18.5 13 Sudeste 24 Sudeste 0 -- -- 52
2020-04-06 13:00:00 18.5 15 Sudeste 23 Sur 0 -- -- 56
2020-04-06 12:00:00 18.5 12 Sudeste 25 Sudeste 0 -- -- 57
2020-04-06 11:00:00 18.2 13 Sudeste 24 Sudeste 0 -- -- 62
2020-04-06 10:00:00 16.8 15 Este 23 Este 0 -- -- 69
2020-04-06 09:00:00 14.8 9 Nordeste 16 Nordeste 0 -- -- 81
2020-04-06 08:00:00 9.8 11 Nordeste 15 Nordeste 0 -- -- 91
2020-04-06 07:00:00 9 9 Norte 11 Nordeste 0 -- -- 89
2020-04-06 06:00:00 9.2 6 Nordeste 15 Este 0 -- -- 87
2020-04-06 05:00:00 10.2 12 Nordeste 15 Nordeste 0 -- -- 86
2020-04-06 04:00:00 10.5 10 Nordeste 14 Nordeste 0 -- -- 84
2020-04-06 03:00:00 11.2 11 Nordeste 14 Este 0 -- -- 82
2020-04-06 02:00:00 11.3 8 Nordeste 13 Nordeste 0 -- -- 82
2020-04-06 01:00:00 11.2 9 Nordeste 12 Nordeste 0 -- -- 82
2020-04-06 00:00:00 11.1 8 Nordeste 12 Nordeste 0 -- -- 78
2020-04-05 23:00:00 11.6 9 Este 13 Este 0 -- -- 77
2020-04-05 22:00:00 11.6 10 Este 13 Este 0 -- -- 76
2020-04-05 21:00:00 12.2 8 Este 10 Este 0 -- -- 73
2020-04-05 20:00:00 15.2 5 Sur 15 Sudeste 0 -- -- 65
2020-04-05 19:00:00 17.6 9 Sur 16 Sudeste 0 -- -- 57
2020-04-05 18:00:00 16 10 Sudeste 21 Sudeste 0 -- -- 64
2020-04-05 17:00:00 16.3 12 Sudeste 22 Sudeste 0 -- -- 61
2020-04-05 16:00:00 17.3 14 Sudeste 26 Sudeste 0 -- -- 60
2020-04-05 15:00:00 18 17 Sudeste 29 Sur 0 -- -- 60
2020-04-05 14:00:00 17.8 12 Sudeste 23 Sudeste 0 -- -- 58
2020-04-05 13:00:00 17.8 13 Sudeste 24 Sudeste 0 -- -- 60
2020-04-05 12:00:00 17.7 14 Sudeste 26 Sur 0 -- -- 60
2020-04-05 11:00:00 17.2 11 Este 23 Este 0 -- -- 59
2020-04-05 10:00:00 16.3 10 Este 18 Este 0 -- -- 73
2020-04-05 09:00:00 14.1 9 Nordeste 16 Nordeste 0 -- -- 84
2020-04-05 08:00:00 9.7 10 Nordeste 16 Nordeste 0 -- -- 91
2020-04-05 07:00:00 8.4 12 Nordeste 17 Nordeste 0 -- -- 89
2020-04-05 06:00:00 8.2 10 Nordeste 15 Nordeste 0 -- -- 87
2020-04-05 05:00:00 8.7 10 Nordeste 13 Nordeste 0 -- -- 87
2020-04-05 04:00:00 8.6 8 Nordeste 10 Nordeste 0 -- -- 86
2020-04-05 03:00:00 9 8 Nordeste 10 Norte 0 -- -- 85
2020-04-05 02:00:00 9.4 7 Nordeste 9 Nordeste 0 -- -- 83
2020-04-05 01:00:00 9.7 6 Nordeste 9 Este 0 -- -- 81
2020-04-05 00:00:00 10 5 Nordeste 12 Nordeste 0 -- -- 79
2020-04-04 23:00:00 11.1 9 Este 13 Este 0 -- -- 76
2020-04-04 22:00:00 12.4 6 Este 8 Este 0 -- -- 73
2020-04-04 21:00:00 13 4 Sudeste 9 Sudeste 0 -- -- 70
2020-04-04 20:00:00 16 5 Sur 10 Sur 0 -- -- 58
2020-04-04 19:00:00 18.5 6 Sudoeste 16 Sur 0 -- -- 51
2020-04-04 18:00:00 18.3 10 Sur 17 Sur 0 -- -- 52
2020-04-04 17:00:00 18.4 12 Sur 18 Sudoeste 0 -- -- 52
2020-04-04 16:00:00 18.4 10 Sur 18 Sudoeste 0 -- -- 56
2020-04-04 15:00:00 18.8 11 Sudoeste 19 Sudoeste 0 -- -- 60
2020-04-04 14:00:00 18.5 13 Oeste 21 Oeste 0 -- -- 62
2020-04-04 13:00:00 18.7 12 Sudoeste 19 Sudoeste 0 -- -- 64
2020-04-04 12:00:00 18.4 11 Sudoeste 17 Sudoeste 0 -- -- 62
2020-04-04 11:00:00 17.8 8 Oeste 16 Noroeste 0 -- -- 67
2020-04-04 10:00:00 17.1 7 Oeste 10 Oeste 0 -- -- 62
2020-04-04 09:00:00 15.6 3 Noroeste 4 Noroeste 0 -- -- 67
2020-04-04 08:00:00 11.3 3 Noroeste 5 Norte 0 -- -- 78
2020-04-04 07:00:00 9.4 5 Norte 8 Norte 0 -- -- 77
2020-04-04 06:00:00 8.6 6 Norte 9 Noroeste 0 -- -- 76
2020-04-04 05:00:00 8.9 8 Noroeste 9 Noroeste 0 -- -- 76
2020-04-04 04:00:00 9.6 6 Noroeste 9 Noroeste 0 -- -- 74
2020-04-04 03:00:00 9.9 6 Oeste 8 Oeste 0 -- -- 80
2020-04-04 02:00:00 9 0 Calma 10 Nordeste 0 -- -- 82
2020-04-04 01:00:00 9.1 8 Nordeste 12 Este 0 -- -- 79
2020-04-04 00:00:00 9.7 10 Este 15 Nordeste 0 -- -- 75
2020-04-03 23:00:00 9.9 10 Nordeste 15 Nordeste 0 -- -- 72
2020-04-03 22:00:00 10.8 11 Nordeste 17 Nordeste 0 -- -- 69
2020-04-03 21:00:00 11.6 11 Nordeste 15 Este 0 -- -- 65
2020-04-03 20:00:00 13.8 8 Este 17 Este 0 -- -- 57
2020-04-03 19:00:00 17.5 11 Nordeste 23 Nordeste 0 -- -- 45
2020-04-03 18:00:00 18.2 14 Nordeste 28 Norte 0 -- -- 48
2020-04-03 17:00:00 18.5 16 Nordeste 35 Nordeste 0 -- -- 53
2020-04-03 16:00:00 18.5 18 Nordeste 37 Norte 0 -- -- 52
2020-04-03 15:00:00 18 18 Nordeste 34 Nordeste 0 -- -- 56
2020-04-03 14:00:00 17.8 20 Nordeste 39 Nordeste 0 -- -- 58
2020-04-03 13:00:00 16.4 21 Norte 40 Norte 0 -- -- 60
2020-04-03 12:00:00 16.1 21 Norte 43 Nordeste 0 -- -- 60
2020-04-03 11:00:00 14.7 21 Nordeste 41 Norte 0 -- -- 70
2020-04-03 10:00:00 14.9 20 Nordeste 37 Norte 0 -- -- 69
2020-04-03 09:00:00 13.5 20 Norte 36 Norte 0 -- -- 76
2020-04-03 08:00:00 10.9 14 Norte 56 Nordeste 0 -- -- 84
2020-04-03 07:00:00 11 19 Nordeste 41 Norte 0 -- -- 90
2020-04-03 06:00:00 10.8 19 Norte 38 Nordeste 0 -- -- 93
2020-04-03 05:00:00 10.7 15 Norte 33 Norte 0 -- -- 95
2020-04-03 04:00:00 10.8 19 Norte 32 Norte 0.2 -- -- 95
2020-04-03 03:00:00 10.2 10 Norte 22 Norte 0 -- -- 95
2020-04-03 02:00:00 10.6 15 Norte 27 Norte 0 -- -- 95
2020-04-03 01:00:00 10.8 14 Nordeste 28 Norte 0 -- -- 94
2020-04-03 00:00:00 11.1 14 Nordeste 30 Nordeste 0 -- -- 94
2020-04-02 23:00:00 11.7 14 Norte 26 Norte 3.2 -- -- 93
2020-04-02 22:00:00 12.1 13 Nordeste 22 Nordeste 0.6 -- -- 90
2020-04-02 21:00:00 12.4 8 Nordeste 20 Nordeste 0.2 -- -- 87
2020-04-02 20:00:00 12.8 13 Nordeste 27 Nordeste 0 -- -- 81
2020-04-02 19:00:00 13.2 18 Nordeste 31 Nordeste 0 -- -- 79
2020-04-02 18:00:00 16 19 Nordeste 37 Nordeste 0 -- -- 67
2020-04-02 17:00:00 18.8 17 Nordeste 31 Nordeste 0 -- -- 68
2020-04-02 16:00:00 16.5 11 Nordeste 20 Nordeste 0.4 -- -- 84
2020-04-02 15:00:00 14.8 9 Nordeste 17 Este 1 -- -- 83
2020-04-02 14:00:00 18.8 8 Sudoeste 18 Sudoeste 0 -- -- 66
2020-04-02 13:00:00 19.4 9 Sudoeste 19 Oeste 0 -- -- 67
2020-04-02 12:00:00 18.3 8 Oeste 18 Oeste 0 -- -- 70
2020-04-02 11:00:00 19.4 8 Sudoeste 14 Sudoeste 0 -- -- 66
2020-04-02 10:00:00 17.2 4 Sudoeste 12 Oeste 0 -- -- 82
2020-04-02 09:00:00 16.5 8 Sudoeste 16 Sur 0 -- -- 90
2020-04-02 08:00:00 13.4 7 Sudoeste 16 Sur 0 -- -- 94
2020-04-02 07:00:00 13.4 9 Sudoeste 22 Sudoeste 0 -- -- 94
2020-04-02 06:00:00 13.7 12 Sudoeste 22 Sur 0 -- -- 94
2020-04-02 05:00:00 13.5 9 Sudoeste 18 Sudoeste 0.2 -- -- 94
2020-04-02 04:00:00 14 10 Sudoeste 19 Sudoeste 0.8 -- -- 94
2020-04-02 03:00:00 13.7 10 Sudoeste 19 Sudoeste 0 -- -- 94
2020-04-02 02:00:00 13.8 9 Sudoeste 19 Sudoeste 0 -- -- 93
2020-04-02 01:00:00 13.9 11 Sudoeste 22 Sudoeste 0 -- -- 93
2020-04-02 00:00:00 14.5 10 Sudoeste 20 Sudoeste 0 -- -- 93
2020-04-01 23:00:00 14.8 9 Sudoeste 18 Sudoeste 0 -- -- 91
2020-04-01 22:00:00 14.7 9 Sur 21 Sudoeste 0 -- -- 90
2020-04-01 21:00:00 14.6 9 Sudoeste 23 Sudoeste 0 -- -- 88
2020-04-01 20:00:00 15.4 12 Sudoeste 21 Sudoeste 0 -- -- 83
2020-04-01 19:00:00 15.8 11 Sudoeste 22 Sudoeste 0 -- -- 81
2020-04-01 18:00:00 17.5 10 Sudoeste 24 Sudoeste 0 -- -- 76
2020-04-01 17:00:00 18.7 12 Sudoeste 23 Oeste 0 -- -- 71
2020-04-01 16:00:00 18.7 14 Sudoeste 24 Sudoeste 0 -- -- 76
2020-04-01 15:00:00 18.5 12 Sudoeste 22 Sudoeste 0 -- -- 77
2020-04-01 14:00:00 17.9 14 Sudoeste 23 Sudoeste 0 -- -- 79
2020-04-01 13:00:00 17.3 13 Sudoeste 21 Sudoeste 0 -- -- 82
2020-04-01 12:00:00 18 13 Sur 20 Sur 0 -- -- 87
2020-04-01 11:00:00 17.2 13 Sudeste 25 Sudeste 0 -- -- 89
2020-04-01 10:00:00 15 12 Sudeste 22 Este 0 -- -- 94
2020-04-01 09:00:00 14.2 11 Nordeste 20 Este 0 -- -- 93
2020-04-01 08:00:00 13.9 8 Nordeste 24 Este 0 -- -- 93
2020-04-01 07:00:00 13.6 16 Este 27 Este 0 -- -- 93
2020-04-01 06:00:00 13.8 13 Este 28 Este 0 -- -- 93
2020-04-01 05:00:00 13.9 15 Este 27 Este 0 -- -- 93
2020-04-01 04:00:00 14.1 17 Este 33 Este 0 -- -- 93
2020-04-01 03:00:00 14 21 Este 36 Este 0 -- -- 93
2020-04-01 02:00:00 13.9 22 Este 38 Este 0 -- -- 93
2020-04-01 01:00:00 13.8 21 Este 45 Este 0 -- -- 92
2020-04-01 00:00:00 14.1 21 Este 40 Este 0 -- -- 92
2020-03-31 23:00:00 14.1 23 Este 40 Este 0 -- -- 91
2020-03-31 22:00:00 13.6 23 Este 39 Este 0 -- -- 91
2020-03-31 21:00:00 13.7 23 Este 35 Este 0 -- -- 89
2020-03-31 20:00:00 15 19 Este 36 Este 0 -- -- 84
2020-03-31 19:00:00 16.9 22 Este 39 Este 0 -- -- 79
2020-03-31 18:00:00 17.9 21 Este 40 Este 0 -- -- 79
2020-03-31 17:00:00 18.2 20 Este 37 Este 0 -- -- 82
2020-03-31 16:00:00 15.6 16 Este 33 Este 0.8 -- -- 88
2020-03-31 15:00:00 16.4 22 Este 38 Este 0 -- -- 80
2020-03-31 14:00:00 16.1 27 Este 49 Este 0 -- -- 76
2020-03-31 13:00:00 16.2 30 Este 54 Este 0 -- -- 78
2020-03-31 12:00:00 15.5 31 Este 58 Este 0 -- -- 81
2020-03-31 11:00:00 15.2 33 Este 54 Este 0 -- -- 80
2020-03-31 10:00:00 15 29 Este 53 Este 0 -- -- 83
2020-03-31 09:00:00 14.3 24 Este 44 Este 0 -- -- 89
2020-03-31 08:00:00 12.6 22 Este 42 Este 0 -- -- 92
2020-03-31 07:00:00 12.3 21 Este 39 Este 0 -- -- 91
2020-03-31 06:00:00 12.6 22 Nordeste 35 Nordeste 0 -- -- 91
2020-03-31 05:00:00 12.6 19 Este 31 Nordeste 0 -- -- 91
2020-03-31 04:00:00 12.4 15 Nordeste 26 Este 0 -- -- 91
2020-03-31 03:00:00 12.2 13 Este 21 Este 0 -- -- 91
2020-03-31 02:00:00 12.2 12 Este 21 Este 0 -- -- 91
2020-03-31 01:00:00 11.9 10 Este 17 Este 0 -- -- 90
2020-03-31 00:00:00 11.9 12 Este 17 Este 0 -- -- 90
2020-03-30 23:00:00 12.5 9 Este 16 Este 0 -- -- 89
2020-03-30 22:00:00 12.9 11 Sudeste 17 Sudeste 0 -- -- 88
2020-03-30 21:00:00 13.4 10 Sudeste 16 Este 0 -- -- 87
2020-03-30 20:00:00 14 6 Sudeste 11 Sudeste 0 -- -- 80
2020-03-30 19:00:00 16 7 Sur 12 Oeste 0 -- -- 71
2020-03-30 18:00:00 18.4 8 Sudoeste 14 Sudoeste 0 -- -- 67
2020-03-30 17:00:00 19.1 8 Oeste 21 Oeste 0 -- -- 68
2020-03-30 16:00:00 18.6 10 Sudoeste 23 Sur 0 -- -- 71
2020-03-30 15:00:00 17.7 14 Sur 26 Sur 0 -- -- 74
2020-03-30 14:00:00 17.9 16 Sudoeste 26 Sudoeste 0 -- -- 73
2020-03-30 13:00:00 17.8 16 Sudoeste 26 Sudoeste 0 -- -- 77
2020-03-30 12:00:00 17.1 17 Sur 26 Sudoeste 0 -- -- 75
2020-03-30 11:00:00 15.4 13 Sur 25 Sur 0 -- -- 79
2020-03-30 10:00:00 15.8 10 Sur 15 Sur 0 -- -- 80
2020-03-30 09:00:00 14.3 9 Sudoeste 18 Sudoeste 0 -- -- 84
2020-03-30 08:00:00 13.2 9 Sur 16 Sudoeste 0 -- -- 88
2020-03-30 07:00:00 12.8 8 Sudoeste 15 Sudoeste 0 -- -- 89
2020-03-30 06:00:00 12.7 9 Sudoeste 15 Sudoeste 0 -- -- 89
2020-03-30 05:00:00 12.7 8 Sudoeste 16 Oeste 0 -- -- 89
2020-03-30 04:00:00 12.7 8 Sudoeste 19 Oeste 0 -- -- 88
2020-03-30 03:00:00 12.9 13 Oeste 21 Sudoeste 0 -- -- 88
2020-03-30 02:00:00 13 12 Sudoeste 21 Sudoeste 0 -- -- 85
2020-03-30 01:00:00 13 13 Oeste 24 Sudoeste 0 -- -- 84
2020-03-30 00:00:00 13.2 15 Oeste 25 Oeste 0 -- -- 84
2020-03-29 23:00:00 13.4 15 Oeste 23 Oeste 0 -- -- 87
2020-03-29 22:00:00 13.3 10 Sudoeste 18 Sudoeste 0 -- -- 86
2020-03-29 21:00:00 13.3 11 Sudoeste 17 Sudoeste 0 -- -- 84
2020-03-29 20:00:00 14 10 Oeste 22 Oeste 0 -- -- 79
2020-03-29 19:00:00 16.3 12 Oeste 24 Oeste 0 -- -- 72
2020-03-29 18:00:00 17.8 13 Oeste 23 Oeste 0 -- -- 69
2020-03-29 17:00:00 18.4 14 Oeste 27 Oeste 0 -- -- 68
2020-03-29 16:00:00 17.2 15 Oeste 24 Oeste 0 -- -- 69
2020-03-29 15:00:00 18 15 Oeste 25 Oeste 0 -- -- 67
2020-03-29 14:00:00 17.6 16 Oeste 26 Oeste 0 -- -- 70
2020-03-29 13:00:00 16.9 17 Oeste 28 Noroeste 0 -- -- 70
2020-03-29 12:00:00 16.8 15 Oeste 25 Oeste 0 -- -- 70
2020-03-29 11:00:00 16 14 Oeste 21 Oeste 0 -- -- 73
2020-03-29 10:00:00 14.2 13 Noroeste 21 Oeste 0 -- -- 81
2020-03-29 09:00:00 13.3 8 Oeste 12 Oeste 0 -- -- 86
2020-03-29 08:00:00 10.1 9 Noroeste 12 Noroeste 0 -- -- 90
2020-03-29 07:00:00 9.9 8 Noroeste 11 Noroeste 0 -- -- 89
2020-03-29 06:00:00 9.3 8 Norte 11 Noroeste 0 -- -- 90
2020-03-29 05:00:00 10.5 8 Noroeste 10 Noroeste 0 -- -- 87
2020-03-29 03:00:00 11.7 7 Oeste 12 Oeste 0 -- -- 82
2020-03-29 01:00:00 11.9 8 Oeste 14 Oeste 0 -- -- 80
2020-03-29 00:00:00 11.8 8 Oeste 12 Oeste 0 -- -- 83
2020-03-28 23:00:00 11.2 6 Noroeste 8 Noroeste 0 -- -- 84
2020-03-28 22:00:00 11.1 6 Noroeste 8 Noroeste 0 -- -- 84
2020-03-28 21:00:00 11.3 5 Noroeste 8 Oeste 0 -- -- 84
2020-03-28 20:00:00 11.5 6 Noroeste 10 Noroeste 0 -- -- 85
2020-03-28 19:00:00 11.9 6 Noroeste 8 Noroeste 0 -- -- 83
2020-03-28 18:00:00 13.2 4 Este 15 Este 0 -- -- 78
2020-03-28 17:00:00 13.8 8 Este 15 Este 0 -- -- 73
2020-03-28 16:00:00 13.2 7 Sudeste 17 Este 0 -- -- 81
2020-03-28 15:00:00 12.1 4 Sudoeste 26 Este 7.4 -- -- 84
2020-03-28 14:00:00 14.8 10 Sudoeste 16 Oeste 0 -- -- 67
2020-03-28 13:00:00 16.5 5 Norte 18 Norte 0 -- -- 58
2020-03-28 12:00:00 15.9 10 Norte 23 Norte 0 -- -- 66
2020-03-28 11:00:00 12.2 12 Norte 22 Nordeste 0 -- -- 81
2020-03-28 10:00:00 12.2 5 Norte 15 Norte 0 -- -- 74
2020-03-28 09:00:00 12 8 Noroeste 16 Noroeste 0 -- -- 77
2020-03-28 08:00:00 11.4 10 Noroeste 18 Noroeste 0 -- -- 77
2020-03-28 07:00:00 8 11 Noroeste 15 Norte 0 -- -- 82
2020-03-28 06:00:00 7.9 11 Norte 17 Norte 0 -- -- 84
2020-03-28 05:00:00 7.3 12 Norte 18 Norte 0 -- -- 85
2020-03-28 04:00:00 6.9 12 Norte 18 Norte 0 -- -- 86
2020-03-28 03:00:00 7.3 12 Norte 19 Norte 0 -- -- 85
2020-03-28 02:00:00 7.5 12 Norte 17 Nordeste 0 -- -- 85
2020-03-28 01:00:00 7.2 11 Nordeste 15 Nordeste 0 -- -- 85
2020-03-28 00:00:00 7.3 9 Norte 14 Nordeste 0 -- -- 83
2020-03-27 23:00:00 7.8 10 Nordeste 21 Nordeste 0 -- -- 82
2020-03-27 22:00:00 8.2 13 Nordeste 19 Nordeste 0 -- -- 78
2020-03-27 21:00:00 8.3 9 Nordeste 21 Nordeste 0 -- -- 72
2020-03-27 20:00:00 9.7 8 Nordeste 10 Nordeste 0 -- -- 66
2020-03-27 19:00:00 12.5 4 Oeste 13 Sudoeste 0 -- -- 56
2020-03-27 18:00:00 14.9 9 Sudoeste 15 Sudoeste 0 -- -- 48
2020-03-27 17:00:00 15.9 12 Sudoeste 20 Oeste 0 -- -- 44
2020-03-27 16:00:00 15.6 13 Oeste 22 Oeste 0 -- -- 45
2020-03-27 15:00:00 15.9 17 Oeste 26 Oeste 0 -- -- 46
2020-03-27 14:00:00 14.8 13 Sudoeste 22 Sudoeste 0 -- -- 47
2020-03-27 13:00:00 14 13 Oeste 21 Noroeste 0 -- -- 49
2020-03-27 12:00:00 14.8 8 Norte 24 Nordeste 0 -- -- 44
2020-03-27 11:00:00 14.6 12 Nordeste 24 Nordeste 0 -- -- 46
2020-03-27 10:00:00 14 11 Nordeste 23 Norte 0 -- -- 52
2020-03-27 09:00:00 12.7 10 Nordeste 18 Nordeste 0 -- -- 60
2020-03-27 08:00:00 9.3 11 Norte 17 Norte 0 -- -- 73
2020-03-27 07:00:00 5.6 12 Norte 19 Nordeste 0 -- -- 84
2020-03-27 06:00:00 5.4 12 Nordeste 21 Nordeste 0 -- -- 87
2020-03-27 05:00:00 5.1 13 Nordeste 20 Nordeste 0 -- -- 89
2020-03-27 04:00:00 5.2 12 Nordeste 21 Nordeste 0 -- -- 91
2020-03-27 03:00:00 5.5 13 Nordeste 23 Nordeste 0 -- -- 93
2020-03-27 02:00:00 6 14 Nordeste 22 Nordeste 0 -- -- 93
2020-03-27 01:00:00 6.8 9 Norte 19 Norte 0.2 -- -- 93
2020-03-27 00:00:00 6.8 12 Norte 23 Este 0.4 -- -- 92
2020-03-26 23:00:00 6.9 15 Nordeste 27 Nordeste 0 -- -- 90
2020-03-26 22:00:00 6.8 9 Norte 22 Nordeste 0.2 -- -- 88
2020-03-26 21:00:00 7.5 11 Norte 22 Norte 0 -- -- 85
2020-03-26 20:00:00 6.7 12 Norte 22 Norte 0 -- -- 86
2020-03-26 19:00:00 7.2 11 Norte 20 Norte 0 -- -- 83
2020-03-26 18:00:00 8.4 11 Nordeste 31 Nordeste 0.2 -- -- 83
2020-03-26 17:00:00 8.5 18 Nordeste 41 Nordeste 0 -- -- 77
2020-03-26 16:00:00 9.6 20 Nordeste 39 Nordeste 0 -- -- 75
2020-03-26 15:00:00 10.1 21 Nordeste 37 Nordeste 0 -- -- 75
2020-03-26 14:00:00 9.6 20 Nordeste 34 Nordeste 0 -- -- 79
2020-03-26 13:00:00 10.9 5 Sur 18 Sudoeste 0 -- -- 77
2020-03-26 12:00:00 11.3 6 Sudeste 22 Este 0 -- -- 88
2020-03-26 11:00:00 7.7 15 Nordeste 23 Nordeste 4.4 -- -- 93
2020-03-26 10:00:00 7.1 11 Noroeste 23 Noroeste 4 -- -- 90
2020-03-26 09:00:00 8.6 4 Sudeste 8 Nordeste 1 -- -- 87
2020-03-26 08:00:00 9.2 5 Oeste 15 Nordeste 0.4 -- -- 83
2020-03-26 07:00:00 6.1 8 Nordeste 13 Nordeste 0 -- -- 83
2020-03-26 06:00:00 7.7 4 Noroeste 11 Sudoeste 0 -- -- 77
2020-03-26 05:00:00 8 4 Sur 9 Sudoeste 0 -- -- 79
2020-03-26 04:00:00 7.6 2 Oeste 26 Oeste 0.2 -- -- 79
2020-03-26 03:00:00 8.2 20 Oeste 30 Oeste 0.2 -- -- 75
2020-03-26 02:00:00 7.1 6 Nordeste 10 Nordeste 0 -- -- 69
2020-03-26 01:00:00 8 5 Nordeste 6 Nordeste 0 -- -- 65
2020-03-26 00:00:00 7.5 5 Nordeste -- -- 0 -- -- 70
2020-03-25 23:00:00 7.5 6 Norte 6 Norte 0 -- -- 69
2020-03-25 22:00:00 8.1 0 Calma 9 Sur 0 -- -- 66
2020-03-25 21:00:00 8.4 4 Sur 15 Sudoeste 0 -- -- 72
2020-03-25 20:00:00 9 8 Sudoeste 15 Sudoeste 0 -- -- 64
2020-03-25 19:00:00 10.3 5 Oeste 15 Oeste 0 -- -- 57
2020-03-25 18:00:00 11.4 9 Sur 22 Sur 0 -- -- 55
2020-03-25 17:00:00 11.9 11 Sur 18 Sur 0 -- -- 56
2020-03-25 16:00:00 12.2 9 Sudeste 22 Nordeste 0 -- -- 56
2020-03-25 15:00:00 13.7 15 Nordeste 30 Norte 0 -- -- 34
2020-03-25 14:00:00 16 14 Nordeste 29 Nordeste 0 -- -- 31
2020-03-25 13:00:00 15.6 12 Nordeste 26 Norte 0 -- -- 34
2020-03-25 12:00:00 13.6 9 Nordeste 27 Este 0 -- -- 44
2020-03-25 11:00:00 14.2 15 Nordeste 30 Nordeste 0 -- -- 43
2020-03-25 10:00:00 13.1 15 Nordeste 33 Nordeste 0 -- -- 53
2020-03-25 09:00:00 9.9 16 Nordeste 34 Nordeste 0 -- -- 63
2020-03-25 08:00:00 9.1 10 Nordeste 19 Norte 0 -- -- 62
2020-03-25 07:00:00 6.6 12 Nordeste 22 Nordeste 0 -- -- 69
2020-03-25 06:00:00 5.9 12 Nordeste 23 Nordeste 0 -- -- 70
2020-03-25 05:00:00 6.5 15 Nordeste 26 Nordeste 0 -- -- 72
2020-03-25 04:00:00 6.7 15 Nordeste 23 Nordeste 0 -- -- 77
2020-03-25 03:00:00 6.9 13 Nordeste 21 Nordeste 0 -- -- 78
2020-03-25 02:00:00 6.9 10 Nordeste 21 Este 0 -- -- 76
2020-03-25 01:00:00 7.6 12 Nordeste 19 Nordeste 0 -- -- 75
2020-03-25 00:00:00 7.8 11 Nordeste 22 Nordeste 0 -- -- 74
2020-03-24 23:00:00 8.4 13 Nordeste 22 Nordeste 0 -- -- 71
2020-03-24 22:00:00 7.9 12 Nordeste 20 Nordeste 0 -- -- 73
2020-03-24 21:00:00 8.8 11 Nordeste 27 Nordeste 0 -- -- 67
2020-03-24 20:00:00 10.1 15 Este 37 Este 0 -- -- 63
2020-03-24 19:00:00 11.1 21 Este 47 Este 0 -- -- 60
2020-03-24 18:00:00 12.7 29 Este 51 Este 0 -- -- 57
2020-03-24 17:00:00 14.2 30 Este 54 Nordeste 0 -- -- 58
2020-03-24 16:00:00 15.4 26 Este 50 Nordeste 0 -- -- 60
2020-03-24 15:00:00 15 29 Nordeste 53 Este 0 -- -- 65
2020-03-24 14:00:00 14.6 25 Este 50 Este 0 -- -- 71
2020-03-24 13:00:00 15.1 24 Este 50 Este 0 -- -- 71
2020-03-24 12:00:00 14.9 27 Este 53 Este 0 -- -- 82
2020-03-24 11:00:00 14.2 27 Este 43 Nordeste 0 -- -- 90
2020-03-24 10:00:00 12.2 15 Este 29 Este 0 -- -- 95
2020-03-24 09:00:00 11.5 13 Este 33 Nordeste 0.2 -- -- 94
2020-03-24 08:00:00 11.6 17 Este 33 Nordeste 0.2 -- -- 93
2020-03-24 07:00:00 11.8 20 Este 43 Este 1.6 -- -- 92
2020-03-24 06:00:00 12.2 17 Nordeste 32 Nordeste 0 -- -- 91
2020-03-24 05:00:00 11.6 17 Nordeste 26 Nordeste 0 -- -- 91
2020-03-24 04:00:00 11.9 14 Este 28 Este 0 -- -- 91
2020-03-24 03:00:00 12.1 15 Este 28 Nordeste 0 -- -- 90
2020-03-24 02:00:00 12.3 15 Este 36 Este 0 -- -- 89
2020-03-24 01:00:00 12.3 19 Nordeste 32 Este 0 -- -- 88
2020-03-24 00:00:00 12.1 20 Este 32 Nordeste 0 -- -- 88
2020-03-23 23:00:00 12 17 Nordeste 26 Nordeste 0 -- -- 88
2020-03-23 22:00:00 12.2 13 Este 23 Este 0 -- -- 87
2020-03-23 21:00:00 12.8 14 Este 32 Nordeste 0 -- -- 83
2020-03-23 20:00:00 13.5 18 Este 33 Este 0 -- -- 76
2020-03-23 19:00:00 14.5 17 Este 39 Este 0 -- -- 70
2020-03-23 18:00:00 16.6 23 Este 39 Este 0 -- -- 63
2020-03-23 17:00:00 18.8 19 Este 35 Nordeste 0 -- -- 55
2020-03-23 16:00:00 19.9 18 Este 35 Este 0 -- -- 54
2020-03-23 15:00:00 19.5 19 Sudeste 36 Sudeste 0 -- -- 57
2020-03-23 14:00:00 18.6 22 Sudeste 35 Sudeste 0 -- -- 58
2020-03-23 13:00:00 19.5 17 Sudeste 34 Sudeste 0 -- -- 58
2020-03-23 12:00:00 18.4 19 Sudeste 32 Este 0 -- -- 63
2020-03-23 11:00:00 18.6 18 Sudeste 31 Sudeste 0 -- -- 65
2020-03-23 10:00:00 16.1 18 Este 28 Este 0 -- -- 86
2020-03-23 09:00:00 15.1 16 Este 24 Sudeste 0 -- -- 94
2020-03-23 08:00:00 12.7 9 Nordeste 14 Nordeste 0 -- -- 96
2020-03-23 07:00:00 10.4 9 Nordeste 14 Este 0 -- -- 97
2020-03-23 06:00:00 10.6 9 Nordeste 13 Este 0 -- -- 96
2020-03-23 05:00:00 11 10 Este 15 Este 0 -- -- 96
2020-03-23 04:00:00 10.8 9 Nordeste 13 Nordeste 0 -- -- 95
2020-03-23 03:00:00 11.5 7 Este 13 Este 0 -- -- 94
2020-03-23 02:00:00 10.7 8 Nordeste 15 Nordeste 0 -- -- 94
2020-03-23 01:00:00 11.3 8 Nordeste 14 Nordeste 0 -- -- 92
2020-03-23 00:00:00 11.5 8 Este 12 Este 0 -- -- 91
2020-03-22 23:00:00 11.5 8 Nordeste 12 Este 0 -- -- 90
2020-03-22 22:00:00 11.4 6 Este 9 Este 0 -- -- 87
2020-03-22 21:00:00 12.4 3 Sudeste 9 Sur 0 -- -- 84
2020-03-22 20:00:00 13.1 7 Sudeste 10 Sur 0 -- -- 83
2020-03-22 19:00:00 14.5 7 Sur 18 Sudeste 0 -- -- 78
2020-03-22 18:00:00 16.9 10 Sur 16 Sur 0 -- -- 72
2020-03-22 17:00:00 19.7 6 Sudoeste 16 Sudoeste 0 -- -- 62
2020-03-22 16:00:00 18.1 9 Sur 18 Sudoeste 0 -- -- 69
2020-03-22 15:00:00 17.8 12 Sur 19 Sur 0 -- -- 70
2020-03-22 14:00:00 18.4 8 Oeste 17 Oeste 0 -- -- 72
2020-03-22 13:00:00 17.1 9 Sudoeste 17 Sudoeste 0 -- -- 78
2020-03-22 12:00:00 17.5 10 Sudoeste 21 Sur 0 -- -- 80
2020-03-22 11:00:00 16.5 13 Sur 21 Sur 0 -- -- 82
2020-03-22 10:00:00 16.7 8 Este 17 Este 0 -- -- 85
2020-03-22 09:00:00 14.5 8 Nordeste 15 Este 0 -- -- 94
2020-03-22 08:00:00 12.5 8 Nordeste 13 Norte 0 -- -- 94
2020-03-22 07:00:00 11.4 9 Norte 18 Nordeste 0 -- -- 94
2020-03-22 06:00:00 11.3 10 Norte 13 Norte 0 -- -- 93
2020-03-22 05:00:00 11.3 8 Norte 14 Norte 0 -- -- 93
2020-03-22 04:00:00 11.3 9 Norte 12 Norte 0 -- -- 92
2020-03-22 03:00:00 11.7 6 Norte 10 Nordeste 0 -- -- 90
2020-03-22 02:00:00 12.6 8 Norte 10 Norte 0 -- -- 89
2020-03-22 01:00:00 12.4 5 Norte 6 Norte 0 -- -- 88
2020-03-22 00:00:00 12.6 4 Norte 8 Norte 0 -- -- 86
2020-03-21 23:00:00 13 5 Noroeste 10 Nordeste 0 -- -- 83
2020-03-21 22:00:00 13.7 4 Norte 9 Nordeste 0 -- -- 81
2020-03-21 21:00:00 14.2 5 Nordeste 17 Nordeste 0 -- -- 78
2020-03-21 20:00:00 14.6 7 Nordeste 13 Este 0 -- -- 75
2020-03-21 19:00:00 15.1 5 Este 17 Este 0 -- -- 71
2020-03-21 18:00:00 15.8 9 Este 19 Este 0 -- -- 67
2020-03-21 17:00:00 16.7 12 Este 21 Este 0 -- -- 66
2020-03-21 16:00:00 16.4 11 Este 25 Sudeste 0 -- -- 66
2020-03-21 15:00:00 17.1 13 Este 26 Este 0 -- -- 62
2020-03-21 14:00:00 17.5 12 Nordeste 31 Este 0 -- -- 62
2020-03-21 13:00:00 18.8 17 Este 28 Nordeste 0 -- -- 58
2020-03-21 12:00:00 18.5 19 Este 29 Este 0 -- -- 61
2020-03-21 11:00:00 17.8 13 Nordeste 26 Este 0 -- -- 66
2020-03-21 10:00:00 16.8 13 Nordeste 25 Este 0 -- -- 80
2020-03-21 09:00:00 15.2 12 Nordeste 22 Nordeste 0 -- -- 89
2020-03-21 08:00:00 12.4 11 Norte 17 Norte 0 -- -- 92
2020-03-21 07:00:00 11.3 11 Norte 19 Norte 0 -- -- 92
2020-03-21 06:00:00 11.1 12 Norte 19 Norte 0 -- -- 92
2020-03-21 05:00:00 11.1 12 Norte 17 Norte 0 -- -- 92
2020-03-21 04:00:00 10.7 10 Norte 21 Norte 0 -- -- 91
2020-03-21 03:00:00 10.8 10 Nordeste 17 Nordeste 0 -- -- 90
2020-03-21 02:00:00 10.8 9 Norte 15 Nordeste 0 -- -- 90
2020-03-21 01:00:00 10.6 10 Nordeste 16 Norte 0 -- -- 90
2020-03-21 00:00:00 11.3 11 Nordeste 24 Nordeste 0 -- -- 87
2020-03-20 23:00:00 11.8 14 Nordeste 32 Este 0 -- -- 85
2020-03-20 22:00:00 12.4 19 Este 39 Este 0 -- -- 83
2020-03-20 21:00:00 12.5 19 Este 32 Nordeste 0 -- -- 81
2020-03-20 20:00:00 13.6 14 Este 30 Este 0 -- -- 74
2020-03-20 19:00:00 14.2 13 Este 28 Nordeste 0 -- -- 70
2020-03-20 18:00:00 16 19 Nordeste 31 Nordeste 0 -- -- 64
2020-03-20 17:00:00 17.2 18 Este 32 Este 0 -- -- 60
2020-03-20 16:00:00 18.4 17 Nordeste 34 Nordeste 0 -- -- 56
2020-03-20 15:00:00 19 17 Este 34 Nordeste 0 -- -- 50
2020-03-20 14:00:00 18.9 19 Este 38 Este 0 -- -- 50
2020-03-20 13:00:00 18.9 20 Este 35 Este 0 -- -- 53
2020-03-20 12:00:00 18.3 24 Este 44 Este 0 -- -- 56
2020-03-20 11:00:00 17.5 23 Nordeste 40 Este 0 -- -- 60
2020-03-20 10:00:00 16.3 18 Este 37 Este 0 -- -- 69
2020-03-20 09:00:00 14.6 14 Nordeste 25 Nordeste 0 -- -- 87
2020-03-20 08:00:00 11.4 13 Nordeste 21 Nordeste 0 -- -- 94
2020-03-20 07:00:00 9.2 13 Nordeste 19 Nordeste 0 -- -- 94
2020-03-20 06:00:00 9.1 12 Nordeste 20 Nordeste 0 -- -- 94
2020-03-20 05:00:00 9.3 12 Nordeste 19 Nordeste 0 -- -- 94
2020-03-20 04:00:00 9.2 12 Nordeste 18 Nordeste 0 -- -- 94
2020-03-20 03:00:00 9.4 12 Nordeste 20 Nordeste 0 -- -- 94
2020-03-20 02:00:00 9.6 12 Nordeste 19 Nordeste 0 -- -- 93
2020-03-20 01:00:00 9.9 12 Nordeste 18 Nordeste 0 -- -- 92
2020-03-20 00:00:00 9.9 11 Nordeste 17 Nordeste 0 -- -- 91
2020-03-19 23:00:00 9.9 11 Nordeste 17 Nordeste 0 -- -- 90
2020-03-19 22:00:00 10.2 11 Nordeste 18 Nordeste 0 -- -- 87
2020-03-19 21:00:00 10.9 11 Nordeste 16 Este 0 -- -- 84
2020-03-19 20:00:00 11.7 11 Este 18 Este 0 -- -- 79
2020-03-19 19:00:00 13.5 11 Este 30 Este 0 -- -- 73
2020-03-19 18:00:00 14.9 18 Este 33 Sudeste 0 -- -- 67
2020-03-19 17:00:00 16.5 22 Sudeste 37 Sudeste 0 -- -- 64
2020-03-19 16:00:00 17 23 Sudeste 35 Este 0 -- -- 64
2020-03-19 15:00:00 17.4 20 Sudeste 32 Sudeste 0 -- -- 64
2020-03-19 14:00:00 17.7 18 Sudeste 31 Sudeste 0 -- -- 63
2020-03-19 13:00:00 16.2 16 Sudeste 26 Sudeste 0 -- -- 70
2020-03-19 12:00:00 15.8 9 Sudeste 22 Este 0 -- -- 72
2020-03-19 11:00:00 16 12 Este 25 Este 0 -- -- 70
2020-03-19 10:00:00 15.8 18 Este 28 Este 0 -- -- 84
2020-03-19 09:00:00 14.4 14 Este 22 Nordeste 0 -- -- 93
2020-03-19 08:00:00 11.2 12 Nordeste 18 Este 0 -- -- 96
2020-03-19 07:00:00 10.2 13 Nordeste 18 Nordeste 0 -- -- 95
2020-03-19 06:00:00 10.1 12 Nordeste 18 Nordeste 0 -- -- 95
2020-03-19 05:00:00 10.6 10 Nordeste 16 Nordeste 0 -- -- 94
2020-03-19 04:00:00 10.5 10 Nordeste 19 Nordeste 0 -- -- 94
2020-03-19 03:00:00 10.9 12 Nordeste 18 Nordeste 0 -- -- 93
2020-03-19 02:00:00 11.1 11 Nordeste 15 Nordeste 0 -- -- 92
2020-03-19 01:00:00 11.3 10 Nordeste 16 Nordeste 0 -- -- 91
2020-03-19 00:00:00 11.7 11 Nordeste 15 Nordeste 0 -- -- 90
2020-03-18 23:00:00 11.9 9 Nordeste 13 Nordeste 0 -- -- 88
2020-03-18 22:00:00 12.2 8 Nordeste 16 Este 0 -- -- 86
2020-03-18 21:00:00 12.8 11 Nordeste 19 Nordeste 0 -- -- 83
2020-03-18 20:00:00 13.4 12 Nordeste 19 Nordeste 0 -- -- 79
2020-03-18 19:00:00 14.4 9 Este 23 Este 0 -- -- 73
2020-03-18 18:00:00 15.6 13 Este 27 Este 0 -- -- 69
2020-03-18 17:00:00 16.5 14 Este 31 Este 0 -- -- 63
2020-03-18 16:00:00 17.9 15 Nordeste 28 Este 0 -- -- 60
2020-03-18 15:00:00 18.2 17 Este 32 Este 0 -- -- 61
2020-03-18 14:00:00 18.9 18 Este 32 Nordeste 0 -- -- 58
2020-03-18 13:00:00 19.7 15 Este 35 Este 0 -- -- 60
2020-03-18 12:00:00 17.9 16 Nordeste 32 Nordeste 0 -- -- 70
2020-03-18 11:00:00 16.5 18 Este 33 Este 0 -- -- 73
2020-03-18 10:00:00 16.4 19 Este 33 Nordeste 0 -- -- 76
2020-03-18 09:00:00 14.9 14 Nordeste 25 Nordeste 0 -- -- 88
2020-03-18 08:00:00 12.8 15 Nordeste 26 Nordeste 0 -- -- 92
2020-03-18 07:00:00 11.9 13 Nordeste 23 Nordeste 0 -- -- 92
2020-03-18 06:00:00 11.9 12 Nordeste 22 Nordeste 0 -- -- 91
2020-03-18 05:00:00 12.3 13 Nordeste 24 Nordeste 0 -- -- 90
2020-03-18 04:00:00 12.3 13 Nordeste 22 Nordeste 0 -- -- 88
2020-03-18 03:00:00 12.2 12 Nordeste 20 Nordeste 0 -- -- 85
2020-03-18 02:00:00 12.7 13 Nordeste 21 Este 0 -- -- 81
2020-03-18 01:00:00 13.2 12 Nordeste 25 Nordeste 0 -- -- 77
2020-03-18 00:00:00 13.7 15 Nordeste 33 Nordeste 0 -- -- 79
2020-03-17 23:00:00 13.9 21 Nordeste 41 Nordeste 0 -- -- 80
2020-03-17 22:00:00 14 20 Este 40 Este 0 -- -- 82
2020-03-17 21:00:00 14.1 24 Este 42 Nordeste 0 -- -- 82
2020-03-17 20:00:00 14 23 Este 41 Este 0 -- -- 82
2020-03-17 19:00:00 14.2 25 Este 47 Este 0 -- -- 80
2020-03-17 18:00:00 15.2 24 Este 50 Este 0 -- -- 76
2020-03-17 17:00:00 16.4 26 Este 50 Este 0 -- -- 70
2020-03-17 16:00:00 16.8 28 Este 51 Este 0 -- -- 69
2020-03-17 15:00:00 17.5 30 Este 55 Este 0 -- -- 69
2020-03-17 14:00:00 17.6 31 Este 53 Este 0 -- -- 73
2020-03-17 13:00:00 17.8 27 Este 50 Este 0 -- -- 74
2020-03-17 12:00:00 17.5 23 Este 45 Este 0 -- -- 78
2020-03-17 11:00:00 16.6 24 Este 45 Este 0 -- -- 85
2020-03-17 10:00:00 16.1 24 Este 39 Este 0 -- -- 92
2020-03-17 09:00:00 15.1 19 Este 33 Este 0 -- -- 94
2020-03-17 08:00:00 14.5 16 Este 31 Este 0 -- -- 95
2020-03-17 07:00:00 14.5 18 Este 35 Este 0 -- -- 95
2020-03-17 06:00:00 14.3 18 Nordeste 31 Nordeste 0 -- -- 95
2020-03-17 05:00:00 14.2 17 Nordeste 33 Nordeste 0.2 -- -- 95
2020-03-17 04:00:00 14.4 14 Nordeste 26 Nordeste 0.2 -- -- 94
2020-03-17 03:00:00 14.7 7 Sudeste 29 Nordeste 0 -- -- 93
2020-03-17 02:00:00 14.8 15 Este 32 Este 0 -- -- 93
2020-03-17 01:00:00 14.7 19 Este 31 Este 0 -- -- 93
2020-03-17 00:00:00 14.7 19 Este 32 Este 0 -- -- 93
2020-03-16 23:00:00 14.5 17 Este 32 Este 0 -- -- 92
2020-03-16 22:00:00 14.9 21 Este 33 Este 0 -- -- 91
2020-03-16 21:00:00 15 19 Este 33 Este 0 -- -- 90
2020-03-16 20:00:00 15.1 19 Este 29 Este 0 -- -- 90
2020-03-16 19:00:00 15.3 15 Este 27 Este 0 -- -- 88
2020-03-16 18:00:00 15.6 22 Este 32 Este 0 -- -- 87
2020-03-16 17:00:00 16.1 22 Sudeste 38 Sudeste 0 -- -- 84
2020-03-16 16:00:00 17.4 26 Sudeste 41 Sudeste 0 -- -- 82
2020-03-16 15:00:00 16.7 27 Sudeste 43 Sudeste 0 -- -- 83
2020-03-16 14:00:00 17 29 Sudeste 46 Este 0 -- -- 83
2020-03-16 13:00:00 16.6 27 Este 47 Este 0 -- -- 88
2020-03-16 12:00:00 15.8 29 Este 41 Este 0 -- -- 91
2020-03-16 11:00:00 15.2 27 Este 40 Sudeste 0 -- -- 93
2020-03-16 10:00:00 14.7 20 Este 29 Este 0 -- -- 94
2020-03-16 09:00:00 14.5 13 Este 29 Este 0 -- -- 94
2020-03-16 08:00:00 13.6 11 Este 27 Nordeste 0 -- -- 94
2020-03-16 07:00:00 12.9 19 Nordeste 33 Nordeste 0 -- -- 93
2020-03-16 06:00:00 12.6 13 Este 22 Este 0 -- -- 93
2020-03-16 05:00:00 12.2 14 Este 27 Este 0 -- -- 94
2020-03-16 04:00:00 11.4 14 Este 22 Este 0 -- -- 94
2020-03-16 03:00:00 11.2 14 Nordeste 28 Nordeste 0 -- -- 93
2020-03-16 02:00:00 11.1 18 Nordeste 29 Nordeste 0 -- -- 93
2020-03-16 01:00:00 10.8 15 Nordeste 26 Nordeste 0 -- -- 92
2020-03-16 00:00:00 10.7 16 Nordeste 23 Este 0 -- -- 91
2020-03-15 23:00:00 10.9 15 Nordeste 22 Nordeste 0 -- -- 90
2020-03-15 22:00:00 11 12 Este 21 Este 0 -- -- 88
2020-03-15 21:00:00 11.5 13 Este 25 Este 0 -- -- 85
2020-03-15 20:00:00 12.4 14 Este 24 Este 0 -- -- 78
2020-03-15 19:00:00 13.6 13 Este 28 Sudeste 0 -- -- 69
2020-03-15 18:00:00 15.8 20 Este 31 Este 0 -- -- 64
2020-03-15 17:00:00 17 21 Sudeste 32 Sudeste 0 -- -- 62
2020-03-15 16:00:00 17.6 15 Sudeste 27 Sudeste 0 -- -- 67
2020-03-15 15:00:00 17.4 14 Sudeste 30 Sudeste 0 -- -- 67
2020-03-15 14:00:00 17 17 Sudeste 27 Sur 0 -- -- 69
2020-03-15 13:00:00 17.3 16 Sudeste 30 Sudeste 0 -- -- 68
2020-03-15 12:00:00 17.1 18 Sudeste 30 Sudeste 0 -- -- 70
2020-03-15 11:00:00 16.4 14 Sudeste 22 Sudeste 0 -- -- 73
2020-03-15 10:00:00 16.4 11 Sudeste 21 Sudeste 0 -- -- 77
2020-03-15 09:00:00 15.2 11 Este 16 Este 0 -- -- 90
2020-03-15 08:00:00 11.8 9 Nordeste 14 Este 0 -- -- 94
2020-03-15 07:00:00 9.1 9 Nordeste 13 Este 0 -- -- 96
2020-03-15 06:00:00 9 7 Nordeste 11 Nordeste 0 -- -- 94
2020-03-15 05:00:00 9.2 7 Nordeste 10 Nordeste 0 -- -- 94
2020-03-15 04:00:00 9.5 7 Nordeste 10 Nordeste 0 -- -- 93
2020-03-15 03:00:00 9.6 9 Nordeste 10 Nordeste 0 -- -- 92
2020-03-15 02:00:00 9.4 8 Nordeste 9 Nordeste 0 -- -- 91
2020-03-15 01:00:00 9.9 4 Nordeste 8 Nordeste 0 -- -- 90
2020-03-15 00:00:00 10.5 5 Este 8 Sudeste 0 -- -- 87
2020-03-14 23:00:00 10.9 5 Este 8 Este 0 -- -- 86
2020-03-14 22:00:00 11.2 6 Este 9 Sudeste 0 -- -- 84
2020-03-14 21:00:00 11.8 5 Sudeste 9 Sur 0 -- -- 83
2020-03-14 20:00:00 12.4 6 Sudeste 12 Sudeste 0 -- -- 81
2020-03-14 19:00:00 13.6 7 Sudeste 14 Sudeste 0 -- -- 75
2020-03-14 18:00:00 15.9 9 Sudeste 14 Sur 0 -- -- 67
2020-03-14 17:00:00 17.6 9 Sur 14 Sudoeste 0 -- -- 59
2020-03-14 16:00:00 18 9 Sur 19 Sur 0 -- -- 55
2020-03-14 15:00:00 17.6 12 Sur 17 Sur 0 -- -- 55
2020-03-14 14:00:00 18.1 10 Sur 18 Sur 0 -- -- 48
2020-03-14 13:00:00 18.5 12 Sudoeste 19 Sur 0 -- -- 53
2020-03-14 12:00:00 19.3 5 Este 21 Este 0 -- -- 52
2020-03-14 11:00:00 17.1 14 Este 23 Este 0 -- -- 60
2020-03-14 10:00:00 17.3 13 Nordeste 27 Este 0 -- -- 71
2020-03-14 09:00:00 15.9 13 Nordeste 23 Nordeste 0 -- -- 76
2020-03-14 08:00:00 13.2 10 Nordeste 17 Nordeste 0 -- -- 85
2020-03-14 07:00:00 10.2 12 Nordeste 18 Nordeste 0 -- -- 86
2020-03-14 06:00:00 10.2 12 Nordeste 18 Nordeste 0 -- -- 85
2020-03-14 05:00:00 10.2 11 Nordeste 20 Norte 0 -- -- 86
2020-03-14 04:00:00 10 11 Norte 17 Norte 1 -- -- 83
2020-03-14 03:00:00 11.1 5 Oeste 15 Nordeste 0.6 -- -- 73
2020-03-14 02:00:00 12.7 11 Nordeste 20 Nordeste 0 -- -- 57
2020-03-14 01:00:00 12.2 8 Nordeste 13 Nordeste 0 -- -- 56
2020-03-14 00:00:00 11.9 4 Nordeste 15 Nordeste 0 -- -- 60
2020-03-13 23:00:00 12.4 7 Norte 19 Nordeste 0 -- -- 62
2020-03-13 22:00:00 12.4 7 Nordeste 20 Nordeste 0 -- -- 69
2020-03-13 21:00:00 12.6 13 Nordeste 22 Nordeste 0 -- -- 72
2020-03-13 20:00:00 13.3 15 Nordeste 25 Nordeste 0 -- -- 71
2020-03-13 19:00:00 14.5 14 Nordeste 26 Nordeste 0 -- -- 68
2020-03-13 18:00:00 17.6 15 Nordeste 28 Nordeste 0 -- -- 56
2020-03-13 17:00:00 19.7 16 Nordeste 33 Este 0 -- -- 52
2020-03-13 16:00:00 22.1 17 Nordeste 41 Nordeste 0 -- -- 48
2020-03-13 15:00:00 21.4 22 Este 41 Este 0 -- -- 49
2020-03-13 14:00:00 20.9 21 Nordeste 40 Nordeste 0 -- -- 52
2020-03-13 13:00:00 21 23 Nordeste 43 Nordeste 0 -- -- 56
2020-03-13 12:00:00 20.7 22 Nordeste 40 Nordeste 0 -- -- 56
2020-03-13 11:00:00 19.1 27 Nordeste 45 Nordeste 0 -- -- 60
2020-03-13 10:00:00 18.1 23 Nordeste 42 Nordeste 0 -- -- 64
2020-03-13 09:00:00 16.1 21 Nordeste 37 Nordeste 0 -- -- 74
2020-03-13 08:00:00 13.6 17 Nordeste 32 Nordeste 0 -- -- 81
2020-03-13 07:00:00 12.7 18 Nordeste 30 Nordeste 0 -- -- 80
2020-03-13 06:00:00 11.8 15 Nordeste 23 Nordeste 0 -- -- 75
2020-03-13 05:00:00 12.7 13 Nordeste 20 Nordeste 0 -- -- 51
2020-03-13 04:00:00 13.4 13 Nordeste 20 Nordeste 0 -- -- 50
2020-03-13 03:00:00 13 13 Nordeste 17 Este 0 -- -- 53
2020-03-13 02:00:00 13.9 13 Este 18 Este 0 -- -- 46
2020-03-13 01:00:00 13.3 13 Este 16 Este 0 -- -- 48
2020-03-13 00:00:00 13.3 11 Nordeste 19 Nordeste 0 -- -- 52
2020-03-12 23:00:00 13 13 Nordeste 18 Nordeste 0 -- -- 64
2020-03-12 22:00:00 13 10 Nordeste 15 Nordeste 0 -- -- 68
2020-03-12 21:00:00 13.3 10 Este 14 Nordeste 0 -- -- 66
2020-03-12 20:00:00 14.9 12 Este 15 Este 0 -- -- 56
2020-03-12 19:00:00 15.1 11 Este 14 Este 0 -- -- 60
2020-03-12 18:00:00 18.1 10 Sudeste 15 Este 0 -- -- 53
2020-03-12 17:00:00 20.6 9 Este 17 Este 0 -- -- 51
2020-03-12 16:00:00 20.9 9 Sudeste 18 Sudeste 0 -- -- 45
2020-03-12 15:00:00 21.8 10 Sudeste 19 Sudeste 0 -- -- 36
2020-03-12 14:00:00 21.7 11 Sudeste 19 Sur 0 -- -- 32
2020-03-12 13:00:00 21.6 10 Sur 18 Sur 0 -- -- 33
2020-03-12 12:00:00 20.7 10 Sudeste 17 Sudeste 0 -- -- 42
2020-03-12 11:00:00 18.3 9 Sudeste 17 Sudeste 0 -- -- 50
2020-03-12 10:00:00 19 9 Sudeste 15 Sur 0 -- -- 60
2020-03-12 09:00:00 16.3 6 Este 9 Este 0 -- -- 92
2020-03-12 08:00:00 13.8 5 Sudeste 8 Sudeste 0 -- -- 98
2020-03-12 07:00:00 12.4 5 Sur 8 Sur 0 -- -- 98
2020-03-12 06:00:00 12.3 4 Sudeste 6 Sudeste 0 -- -- 98
2020-03-12 05:00:00 12.5 0 Calma -- -- 0 -- -- 98
2020-03-12 04:00:00 12.1 0 Calma -- -- 0 -- -- 98
2020-03-12 03:00:00 12.1 0 Calma -- -- 0 -- -- 97
2020-03-12 02:00:00 13 2 Sur 5 Sur 0 -- -- 97
2020-03-12 01:00:00 12.7 4 Oeste 5 Noroeste 0 -- -- 96
2020-03-12 00:00:00 12.8 3 Oeste 5 Sudoeste 0 -- -- 95
2020-03-11 23:00:00 13.2 0 Calma 5 Noroeste 0 -- -- 95
2020-03-11 22:00:00 13.4 0 Calma 6 Sudoeste 0 -- -- 93
2020-03-11 21:00:00 13.7 5 Sudoeste 9 Sudoeste 0 -- -- 92
2020-03-11 20:00:00 13.9 6 Sudoeste 10 Sudoeste 0 -- -- 90
2020-03-11 19:00:00 14.7 6 Sudoeste 14 Sudoeste 0 -- -- 86
2020-03-11 18:00:00 17.6 9 Sudoeste 19 Oeste 0 -- -- 78
2020-03-11 17:00:00 18.7 14 Oeste 26 Sudoeste 0 -- -- 75
2020-03-11 16:00:00 19.1 15 Sudoeste 24 Sudoeste 0 -- -- 73
2020-03-11 15:00:00 18.9 14 Sudoeste 22 Sudoeste 0 -- -- 74
2020-03-11 14:00:00 18.2 15 Sudoeste 22 Sudoeste 0 -- -- 74
2020-03-11 13:00:00 18.1 15 Sudoeste 21 Sur 0 -- -- 75
2020-03-11 12:00:00 18.3 11 Sur 18 Sur 0 -- -- 74
2020-03-11 11:00:00 17 9 Sur 15 Sudoeste 0 -- -- 77
2020-03-11 10:00:00 18.7 8 Sudoeste 13 Sudoeste 0 -- -- 68
2020-03-11 09:00:00 18.5 7 Sudoeste 10 Sudoeste 0 -- -- 79
2020-03-11 08:00:00 14.7 4 Sur 11 Oeste 0 -- -- 91
2020-03-11 07:00:00 12.2 8 Oeste 17 Oeste 0 -- -- 92
2020-03-11 06:00:00 12.6 13 Oeste 18 Oeste 0 -- -- 92
2020-03-11 05:00:00 12.6 10 Oeste 20 Oeste 0 -- -- 91
2020-03-11 04:00:00 12.9 12 Oeste 23 Oeste 0 -- -- 91
2020-03-11 03:00:00 13 15 Oeste 23 Oeste 0 -- -- 91
2020-03-11 02:00:00 12.9 13 Oeste 21 Oeste 0 -- -- 91
2020-03-11 01:00:00 12.9 14 Oeste 21 Sudoeste 0 -- -- 90
2020-03-11 00:00:00 13 12 Oeste 26 Oeste 0 -- -- 90
2020-03-10 23:00:00 13.3 15 Oeste 26 Oeste 0 -- -- 88
2020-03-10 22:00:00 13.4 16 Oeste 29 Oeste 0 -- -- 85
2020-03-10 21:00:00 13.5 17 Oeste 27 Oeste 0 -- -- 83
2020-03-10 20:00:00 13.5 17 Oeste 29 Oeste 0 -- -- 80
2020-03-10 19:00:00 13.4 16 Oeste 31 Sudoeste 0 -- -- 78
2020-03-10 18:00:00 14.6 16 Oeste 27 Oeste 0 -- -- 73
2020-03-10 17:00:00 16.2 15 Sudoeste 28 Sudoeste 0 -- -- 67
2020-03-10 16:00:00 17 17 Oeste 27 Oeste 0 -- -- 61
2020-03-10 15:00:00 17.6 16 Oeste 28 Oeste 0 -- -- 58
2020-03-10 14:00:00 16.1 14 Oeste 23 Sudoeste 0 -- -- 61
2020-03-10 13:00:00 17.2 14 Oeste 22 Oeste 0 -- -- 60
2020-03-10 12:00:00 16.5 12 Oeste 18 Oeste 0 -- -- 64
2020-03-10 11:00:00 15.4 9 Oeste 14 Sudoeste 0 -- -- 65
2020-03-10 10:00:00 15.5 6 Noroeste 12 Norte 0 -- -- 65
2020-03-10 09:00:00 12.7 5 Nordeste 16 Nordeste 0 -- -- 77
2020-03-10 08:00:00 10.5 9 Nordeste 16 Nordeste 0 -- -- 82
2020-03-10 07:00:00 8.8 11 Nordeste 17 Nordeste 0 -- -- 84
2020-03-10 06:00:00 8.5 10 Nordeste 18 Nordeste 0 -- -- 83
2020-03-10 05:00:00 8.7 13 Nordeste 20 Nordeste 0 -- -- 81
2020-03-10 04:00:00 9.1 12 Nordeste 19 Nordeste 0 -- -- 81
2020-03-10 03:00:00 9.5 13 Nordeste 23 Nordeste 0 -- -- 83
2020-03-10 02:00:00 9.8 10 Este 18 Este 0 -- -- 87
2020-03-10 01:00:00 10.1 10 Este 21 Este 0 -- -- 89
2020-03-10 00:00:00 9 11 Este 22 Nordeste 0 -- -- 90
2020-03-09 23:00:00 8.7 9 Este 17 Este 0 -- -- 88
2020-03-09 22:00:00 10.1 9 Nordeste 17 Nordeste 0 -- -- 85
2020-03-09 21:00:00 10.7 6 Nordeste 13 Este 0 -- -- 81
2020-03-09 20:00:00 11.3 6 Nordeste 15 Nordeste 0 -- -- 77
2020-03-09 19:00:00 13 11 Norte 23 Noroeste 0 -- -- 56
2020-03-09 18:00:00 16 5 Norte 26 Norte 0 -- -- 46
2020-03-09 17:00:00 15 13 Norte 32 Noroeste 0 -- -- 47
2020-03-09 16:00:00 17.7 14 Noroeste 37 Noroeste 0 -- -- 45
2020-03-09 15:00:00 16.3 22 Noroeste 41 Noroeste 0 -- -- 47
2020-03-09 14:00:00 16.9 24 Noroeste 47 Noroeste 0 -- -- 49
2020-03-09 13:00:00 16.1 30 Noroeste 49 Noroeste 0 -- -- 47
2020-03-09 12:00:00 15.9 26 Noroeste 54 Noroeste 0 -- -- 49
2020-03-09 11:00:00 15.7 22 Noroeste 39 Norte 0 -- -- 51
2020-03-09 10:00:00 16.7 19 Noroeste 44 Norte 0 -- -- 53
2020-03-09 09:00:00 15.2 19 Noroeste 32 Noroeste 0 -- -- 61
2020-03-09 08:00:00 13.5 16 Noroeste 28 Oeste 0 -- -- 84
2020-03-09 07:00:00 10.9 12 Noroeste 17 Noroeste 0 -- -- 94
2020-03-09 06:00:00 11.3 10 Oeste 13 Oeste 0 -- -- 94
2020-03-09 05:00:00 11.4 6 Oeste 9 Oeste 0 -- -- 93
2020-03-09 04:00:00 11.7 4 Oeste 6 Noroeste 0 -- -- 92
2020-03-09 03:00:00 12 4 Noroeste 9 Oeste 0 -- -- 91
2020-03-09 02:00:00 12.2 6 Oeste 10 Sudoeste 0 -- -- 90
2020-03-09 01:00:00 12.6 7 Oeste 13 Oeste 0 -- -- 90
2020-03-09 00:00:00 13 10 Oeste 14 Oeste 0 -- -- 89